Thursday, July 31, 2014
13:35 UTC
  |  Log In   |  Register Free
Airport Search:

Petaluma Municipal Airport
(O69)

Petaluma Municipal Airport Diagram
No Airport Diagram Available

FAA data valid effective July 24, 2014 until September 18, 2014 (unless otherwise noted).

 
 
 
 
 
 
 
 
 
 
 
 
 
 

Current Aviation Weather for Petaluma Municipal Airport (O69)

The most recent METAR observation for KDVO was updated at: 1835 UTC
METAR Summary (Translated METAR)
KDVO
281835Z AUTO 33004KT 10SM CLR 22/14 A3005 RMK AO2
KAPC
(13.6 nm NE from KDVO)
281754Z 20005KT 10SM CLR 20/14 A3004 RMK AO2 SLP165 T02000139 10200 20128 51005
TAF Summary (Translated TAF)
KSTS
(25 nm NW from KDVO)
311133Z 3112/0112 20003KT 2SM BR OVC003 FM311700 VRB04KT P6SM SKC FM312100 20010KT P6SM SKC FM010500 16005KT P6SM SKC FM010800 VRB03KT 2SM BR OVC005
  Airport Weather Conditions for O69

Current weather conditions are
not available for O69


The nearest NOAA weather station
is at DVO, (7.2 nm SE from O69)
  
 Current Weather at DVO
57° F
Overcast
North winds at 0.0 mph
DVO NOAA Radar

Pressure: 29.97 in
Humidity: 94%
Wind: Calm
Dew Point: 55.4°F
Visibility: 10.00 mi


Airport Weather Forecast for O69

Translated METAR and TAF for KDVO
Translated METAR for KDVO (1329 UTC 31 July 2014)
found at http://aviationweather.gov/adds/metars/
 
METAR text: KDVO 311315Z AUTO 00000KT 10SM OVC006 14/13 A2997 RMK AO2
Conditions at: KDVO (NOVATO/GNOSS FLD, CA, US) observed 1315 UTC 31 July 2014
Temperature: 14.0°C (57°F)
Dewpoint: 13.0°C (55°F) [RH = 94%]
Pressure (altimeter): 29.97 inches Hg (1015.0 mb)
Winds: calm
Visibility: 10 or more miles (16+ km)
Ceiling: 600 feet AGL
Clouds: overcast cloud deck at 600 feet AGL
Weather: automated observation with no human augmentation;
there may or may not be significant weather present at this time
Translated TAF for KDVO

There is no translated TAF available for this airport

Find All Airport Services Find A Hotel Find A Rental Car Find A Golf Course Find A Restaurant $100 Hamburger



FBO's on the Field
FBO Company Facility Photos Services Transportation Aviation Fuel Prices: Prices include tax
Catering Weather Repair Courtesy Rental Type 100LL JetA JetA+ MOGAS 8087
 
Petaluma Municipal Airport

Currently rated 4.8 by 1 person
FS:Ascent
Last Updated: Jul-21
Login to update fuel prices
SS:
Contact Petaluma Municipal AirportMore FBO Information
 
Add another FBO Facility Photos Catering Weather Repair Courtesy Rental Type 100LL JetA JetA+ MOGAS 8087
Services Transportation Aviation Fuel Prices: Prices include tax


GlobalAir.com Airport Resource Center model-print
model-print
model-print
model-print